createdAt,value
2019-05-29T02:37:08.644Z,85.50
2019-05-29T02:39:39.651Z,85.50
2019-05-29T02:42:10.484Z,85.80
2019-05-29T02:44:41.728Z,83.90
2019-05-29T02:47:12.473Z,83.20
2019-05-29T02:49:43.364Z,80.30
2019-05-29T02:52:14.759Z,81.80
2019-05-29T02:54:45.627Z,82.40
2019-05-29T02:57:16.765Z,81.70
2019-05-29T02:59:47.868Z,81.30
2019-05-29T03:02:18.721Z,79.80
2019-05-29T03:04:49.881Z,76.20
2019-05-29T03:07:22.275Z,78.50
2019-05-29T03:09:53.311Z,77.70
2019-05-29T03:12:25.052Z,77.90
2019-05-29T03:14:56.165Z,75.30
2019-05-29T03:17:27.878Z,77.00
2019-05-29T03:19:59.521Z,75.90
2019-05-29T03:22:31.425Z,75.70
2019-05-29T03:25:03.187Z,75.40
2019-05-29T03:27:34.112Z,74.30
2019-05-29T03:30:07.318Z,71.30
2019-05-29T03:32:46.266Z,73.00
2019-05-29T03:35:10.960Z,72.80
2019-05-29T03:37:41.887Z,73.30
2019-05-29T03:40:13.031Z,73.90
2019-05-29T03:42:44.199Z,73.50
2019-05-29T03:45:15.343Z,73.40
2019-05-29T03:47:46.140Z,72.20
2019-05-29T03:50:17.951Z,72.60
2019-05-29T03:52:48.997Z,71.80
2019-05-29T03:55:19.934Z,73.20
2019-05-29T03:57:51.237Z,70.40
2019-05-29T04:00:22.263Z,70.20
2019-05-29T04:02:53.140Z,70.60
2019-05-29T04:05:24.229Z,69.60
2019-05-29T04:07:55.185Z,68.90
2019-05-29T04:10:29.330Z,68.20
2019-05-29T04:13:02.507Z,68.80
2019-05-29T04:15:36.625Z,65.70
2019-05-29T04:18:08.705Z,67.00
2019-05-29T04:20:40.200Z,63.80
2019-05-29T04:23:11.250Z,61.10
2019-05-29T04:25:43.158Z,59.30
2019-05-29T04:28:14.206Z,62.20
2019-05-29T04:30:45.178Z,62.20
2019-05-29T04:33:16.338Z,59.70
2019-05-29T04:35:47.170Z,58.90
2019-05-29T04:38:18.194Z,61.40
2019-05-29T04:40:49.259Z,60.40
2019-05-29T04:43:20.135Z,59.40
2019-05-29T04:45:51.058Z,59.30
2019-05-29T04:48:22.347Z,59.20
2019-05-29T04:50:53.143Z,59.00
2019-05-29T04:53:24.157Z,58.80
2019-05-29T04:55:55.417Z,60.00
2019-05-29T04:58:26.390Z,61.00
2019-05-29T05:00:59.368Z,58.60
2019-05-29T05:03:31.026Z,57.20
2019-05-29T05:06:02.049Z,57.00
2019-05-29T05:08:33.357Z,58.10
2019-05-29T05:11:04.328Z,58.50
2019-05-29T05:13:35.541Z,57.10
2019-05-29T05:16:07.568Z,58.70
2019-05-29T05:18:38.486Z,58.60
2019-05-29T05:21:09.644Z,58.70
2019-05-29T05:23:40.629Z,59.30
2019-05-29T05:26:11.931Z,60.00
2019-05-29T05:28:45.100Z,60.40
2019-05-29T05:31:15.227Z,61.70
2019-05-29T05:33:46.191Z,60.00
2019-05-29T05:36:17.400Z,60.10
2019-05-29T05:38:48.214Z,60.80
2019-05-29T05:41:19.086Z,60.80
2019-05-29T05:43:50.244Z,60.10
2019-05-29T05:46:21.066Z,62.00
2019-05-29T05:48:52.125Z,62.20
2019-05-29T05:51:23.093Z,60.50
2019-05-29T05:53:54.014Z,58.20
2019-05-29T05:56:25.198Z,59.30
2019-05-29T05:58:55.884Z,57.40
2019-05-29T06:01:26.653Z,56.60
2019-05-29T06:03:57.876Z,56.70
2019-05-29T06:06:28.814Z,56.90
2019-05-29T06:08:59.819Z,56.60
2019-05-29T06:11:32.093Z,56.40
2019-05-29T06:14:03.599Z,54.20
2019-05-29T06:16:34.608Z,54.80
2019-05-29T06:19:06.033Z,54.80
2019-05-29T06:21:36.781Z,54.70
2019-05-29T06:24:07.586Z,54.90
2019-05-29T06:26:38.971Z,56.80
2019-05-29T06:29:09.950Z,57.60
2019-05-29T06:31:41.435Z,57.20
2019-05-29T06:34:12.638Z,56.80
2019-05-29T06:36:43.950Z,57.30
2019-05-29T06:39:15.160Z,57.30
2019-05-29T06:41:46.281Z,57.20
2019-05-29T06:44:17.146Z,57.10
2019-05-29T06:46:47.908Z,57.10
2019-05-29T06:49:19.182Z,57.20
2019-05-29T06:51:49.979Z,56.90
2019-05-29T06:54:20.701Z,56.60
2019-05-29T06:56:51.783Z,56.50
2019-05-29T06:59:22.659Z,56.60
2019-05-29T07:01:53.816Z,57.50
2019-05-29T07:04:25.067Z,57.40
2019-05-29T07:06:55.919Z,57.40
2019-05-29T07:09:26.723Z,56.00
2019-05-29T07:11:58.204Z,56.40
2019-05-29T07:14:29.360Z,56.00
2019-05-29T07:17:00.352Z,57.10
2019-05-29T07:19:47.713Z,57.40
2019-05-29T07:22:04.006Z,54.90
2019-05-29T07:24:34.927Z,56.60
2019-05-29T07:27:06.172Z,57.30
2019-05-29T07:29:37.026Z,56.90
2019-05-29T07:32:08.006Z,57.70
2019-05-29T07:34:51.136Z,58.20
2019-05-29T07:37:12.990Z,58.30
2019-05-29T07:39:45.584Z,58.30
2019-05-29T07:42:16.944Z,58.90
2019-05-29T07:44:48.174Z,59.10
2019-05-29T07:47:19.192Z,59.60
2019-05-29T07:49:50.430Z,59.80
2019-05-29T07:52:21.355Z,59.00
2019-05-29T07:54:52.690Z,59.30
2019-05-29T07:57:23.689Z,60.10
2019-05-29T07:59:54.833Z,60.50
2019-05-29T08:02:25.877Z,60.40
2019-05-29T08:04:56.783Z,60.30
2019-05-29T08:07:27.826Z,60.50
2019-05-29T08:09:59.229Z,59.70
2019-05-29T08:12:30.119Z,59.20
2019-05-29T08:15:01.286Z,59.30
2019-05-29T08:17:32.514Z,59.60
2019-05-29T08:20:07.645Z,60.20
2019-05-29T08:22:35.593Z,60.40
2019-05-29T08:25:08.667Z,60.50
2019-05-29T08:27:40.552Z,60.20
2019-05-29T08:30:12.091Z,59.30
2019-05-29T08:32:44.042Z,60.00
2019-05-29T08:35:16.723Z,60.00
2019-05-29T08:37:49.021Z,59.90
2019-05-29T08:40:21.128Z,60.10
2019-05-29T08:42:52.276Z,59.90
2019-05-29T08:45:23.711Z,59.60
2019-05-29T08:47:54.967Z,59.50
2019-05-29T08:50:25.865Z,59.60
2019-05-29T08:52:56.832Z,59.70
2019-05-29T08:55:27.954Z,60.40
2019-05-29T08:57:58.946Z,59.50
2019-05-29T09:00:31.246Z,59.40
2019-05-29T09:03:02.427Z,59.60
2019-05-29T09:05:33.247Z,59.70
2019-05-29T09:08:04.320Z,59.50
2019-05-29T09:10:35.453Z,60.80
2019-05-29T09:13:06.423Z,59.90
2019-05-29T09:15:37.284Z,60.30
2019-05-29T09:18:08.698Z,60.10
2019-05-29T09:21:01.057Z,60.70
2019-05-29T09:23:12.731Z,60.70
2019-05-29T09:25:43.813Z,60.70
2019-05-29T09:28:16.610Z,60.40
2019-05-29T09:30:48.714Z,60.20
2019-05-29T09:33:21.142Z,59.80
2019-05-29T09:35:52.189Z,59.80
2019-05-29T09:38:23.117Z,59.60
2019-05-29T09:40:53.846Z,59.80
2019-05-29T09:43:30.042Z,59.30
2019-05-29T09:45:57.055Z,59.90
2019-05-29T09:48:28.808Z,59.30
2019-05-29T09:50:59.883Z,59.50
2019-05-29T09:53:30.850Z,59.40
2019-05-29T09:56:02.922Z,59.50
2019-05-29T09:58:34.428Z,59.60
2019-05-29T10:01:21.803Z,59.70
2019-05-29T10:03:37.904Z,59.70
2019-05-29T10:06:09.598Z,59.80
2019-05-29T10:08:40.615Z,59.50
2019-05-29T10:11:12.093Z,59.80
2019-05-29T10:13:42.974Z,59.70
2019-05-29T10:16:13.759Z,59.70
2019-05-29T10:18:44.833Z,59.80
2019-05-29T10:21:16.091Z,59.90
2019-05-29T10:23:47.171Z,59.80
2019-05-29T10:26:18.178Z,60.00
2019-05-29T10:29:01.985Z,60.30
2019-05-29T10:31:21.338Z,60.30
2019-05-29T10:33:52.421Z,60.50
2019-05-29T10:36:23.950Z,60.60
2019-05-29T10:38:55.071Z,60.90
2019-05-29T10:41:25.950Z,61.10
2019-05-29T10:43:57.186Z,61.00
2019-05-29T10:46:28.237Z,61.40
2019-05-29T10:48:59.303Z,61.70
2019-05-29T10:51:30.772Z,61.70
2019-05-29T10:54:01.613Z,61.90
2019-05-29T10:56:32.571Z,62.30
2019-05-29T10:59:03.743Z,62.80
2019-05-29T11:01:34.579Z,63.40
2019-05-29T11:04:05.604Z,64.00
2019-05-29T11:06:40.448Z,64.50
2019-05-29T11:09:09.457Z,64.90
2019-05-29T11:11:40.631Z,65.50
2019-05-29T11:14:11.680Z,66.00
2019-05-29T11:16:42.635Z,66.40
2019-05-29T11:19:13.820Z,66.90
2019-05-29T11:21:44.792Z,66.80
2019-05-29T11:24:15.778Z,67.00
2019-05-29T11:26:48.264Z,66.90
2019-05-29T11:29:19.194Z,66.60
2019-05-29T11:31:50.563Z,66.90
2019-05-29T11:34:21.678Z,67.40
2019-05-29T11:36:54.146Z,67.80
2019-05-29T11:39:25.604Z,68.10
2019-05-29T11:41:56.925Z,68.30
2019-05-29T11:44:27.872Z,68.40
2019-05-29T11:46:58.740Z,68.30
2019-05-29T11:49:29.869Z,68.70
2019-05-29T11:52:22.938Z,68.90
2019-05-29T11:54:33.105Z,69.10
2019-05-29T11:57:04.213Z,69.80
2019-05-29T11:59:34.893Z,70.00
2019-05-29T12:02:05.957Z,70.30
2019-05-29T12:04:37.089Z,71.10
2019-05-29T12:07:07.983Z,72.10
2019-05-29T12:09:38.806Z,74.50
2019-05-29T12:12:10.231Z,75.30
2019-05-29T12:14:58.698Z,76.30
2019-05-29T12:17:13.704Z,76.30
2019-05-29T12:19:44.998Z,77.70
2019-05-29T12:22:16.197Z,77.90
2019-05-29T12:24:47.022Z,78.30
2019-05-29T12:27:18.356Z,78.90
2019-05-29T12:29:49.379Z,79.40
2019-05-29T12:32:20.210Z,79.30
2019-05-29T12:34:54.059Z,79.10
2019-05-29T12:37:24.059Z,79.60
2019-05-29T12:39:55.428Z,79.90
2019-05-29T12:42:26.997Z,80.20
2019-05-29T12:44:57.920Z,80.60
2019-05-29T12:47:28.768Z,80.70
2019-05-29T12:50:02.520Z,80.80
2019-05-29T12:52:32.902Z,80.90
2019-05-29T12:55:04.230Z,81.20
2019-05-29T12:57:35.470Z,81.30
2019-05-29T13:00:08.796Z,81.40
2019-05-29T13:02:39.966Z,81.50
2019-05-29T13:05:18.291Z,81.70
2019-05-29T13:07:44.757Z,81.70
2019-05-29T13:10:30.158Z,82.40
2019-05-29T13:12:49.454Z,82.50
2019-05-29T13:15:21.944Z,82.90
2019-05-29T13:17:57.272Z,83.90
2019-05-29T13:20:26.766Z,83.50
2019-05-29T13:22:57.787Z,84.70
2019-05-29T13:25:28.948Z,84.00
2019-05-29T13:28:01.565Z,84.90
2019-05-29T13:30:32.719Z,85.00
2019-05-29T13:33:07.353Z,84.30
2019-05-29T13:35:36.269Z,85.00
2019-05-29T13:38:07.730Z,84.30
2019-05-29T13:40:38.773Z,84.10
2019-05-29T13:43:15.106Z,84.60
2019-05-29T13:45:42.290Z,84.90
2019-05-29T13:48:13.184Z,84.80
2019-05-29T13:50:44.134Z,85.40
2019-05-29T13:53:15.300Z,84.70
2019-05-29T13:55:46.118Z,84.70
2019-05-29T13:58:16.972Z,85.00
2019-05-29T14:00:48.497Z,86.40
2019-05-29T14:03:19.564Z,86.50
2019-05-29T14:05:50.585Z,86.10
2019-05-29T14:08:21.928Z,86.20
2019-05-29T14:10:52.912Z,86.60
2019-05-29T14:13:24.325Z,86.50
2019-05-29T14:15:55.761Z,86.80
2019-05-29T14:18:26.495Z,86.70
2019-05-29T14:20:57.371Z,86.60
2019-05-29T14:23:28.338Z,87.20
2019-05-29T14:26:00.313Z,87.40
2019-05-29T14:28:31.405Z,87.20
